KCLS/CLS METAR and TAF weather

Enter ICAO airport designator
Station Type Date Time Source
KCLS METAR 2021/03/05 07:35 UTC NOAA

KCLS 050735Z AUTO 06004KT 5SM BR BKN005 BKN060 OVC100 07/07 A2993 RMK AO2


Station Type Date Time Source
KCLS Decoded METAR 2021/03/05 07:35 UTC NOAA

Station name not available
Mar 05, 2021 - 02:35 AM EST / 2021.03.05 0735 UTC
Wind: from the ENE (060 degrees) at 5 MPH (4 KT):0
Visibility: 5 mile(s):0
Sky conditions: overcast
Weather: mist
Temperature: 44 F (7 C)
Dew Point: 44 F (7 C)
Relative Humidity: 100%
Pressure (altimeter): 29.93 in. Hg (1013 hPa)
ob: KCLS 050735Z AUTO 06004KT 5SM BR BKN005 BKN060 OVC100 07/07 A2993 RMK AO2
cycle: 7

Station Type Date Time Source
KCLS TAF UTC NOAA

Error!

Example: see airport list